Time;durP1;ratioP1;P1;durP2;ratioP2;P2;SDS_P1;SDS_P2;PMS_P1;PMS_P2;Temp;Humidity;BMP_temperature;BMP_pressure;BME280_temperature;BME280_humidity;BME280_pressure;Samples;Min_cycle;Max_cycle;Signal;HPM_P1;HPM_P2
2022/04/30 00:02:01;;;;;;;7.05;3.38;;;12.30;77.30;;;;;;5122297;27;45380;-82
2022/04/30 00:04:28;;;;;;;8.82;3.17;;;12.40;77.40;;;;;;5113947;27;48658;-82
2022/04/30 00:06:56;;;;;;;6.07;3.45;;;12.20;76.30;;;;;;5119063;27;45164;-82
2022/04/30 00:09:23;;;;;;;6.05;3.47;;;12.20;77.20;;;;;;5116319;27;45369;-82
2022/04/30 00:11:50;;;;;;;5.50;3.10;;;12.20;76.40;;;;;;5120875;27;45555;-82
2022/04/30 00:14:17;;;;;;;9.13;3.70;;;12.20;76.30;;;;;;5121383;27;46447;-83
2022/04/30 00:16:43;;;;;;;4.78;3.10;;;12.10;76.70;;;;;;5119173;27;45207;-82
2022/04/30 00:19:11;;;;;;;8.43;3.53;;;12.20;76.40;;;;;;5120509;27;45251;-82
2022/04/30 00:21:38;;;;;;;5.00;3.00;;;12.10;76.10;;;;;;5122426;27;45563;-81
2022/04/30 00:24:07;;;;;;;6.43;3.05;;;12.20;75.70;;;;;;5127553;27;45548;-82
2022/04/30 00:26:34;;;;;;;9.93;3.45;;;12.10;77.30;;;;;;5119970;27;45129;-82
2022/04/30 00:29:01;;;;;;;4.47;2.97;;;12.20;77.80;;;;;;5118674;27;45201;-82
2022/04/30 00:31:28;;;;;;;4.50;3.10;;;12.10;76.10;;;;;;5122097;27;45488;-82
2022/04/30 00:33:57;;;;;;;5.90;3.53;;;12.10;76.20;;;;;;5127239;27;45268;-83
2022/04/30 00:36:24;;;;;;;7.60;3.22;;;12.00;75.40;;;;;;5125247;27;45514;-82
2022/04/30 00:38:50;;;;;;;6.50;3.20;;;12.00;77.30;;;;;;5120065;27;45330;-83
2022/04/30 00:41:21;;;;;;;6.53;2.95;;;12.00;77.50;;;;;;5125134;27;45398;-83
2022/04/30 00:43:49;;;;;;;6.13;3.60;;;12.00;77.30;;;;;;5120049;27;46650;-83
2022/04/30 00:46:17;;;;;;;6.95;3.13;;;12.00;75.80;;;;;;5118188;27;45142;-82
2022/04/30 00:48:45;;;;;;;5.50;3.53;;;11.90;76.30;;;;;;5121160;27;45482;-83
2022/04/30 00:51:12;;;;;;;6.95;2.65;;;12.00;77.70;;;;;;5120569;27;45409;-82
2022/04/30 00:53:40;;;;;;;5.40;3.38;;;11.90;76.00;;;;;;5115239;27;46176;-83
2022/04/30 00:56:09;;;;;;;5.95;3.17;;;11.80;76.80;;;;;;5116839;27;45340;-83
2022/04/30 00:58:41;;;;;;;8.05;3.17;;;11.80;77.40;;;;;;5124661;27;45273;-82
2022/04/30 01:01:08;;;;;;;6.00;2.95;;;11.80;78.00;;;;;;5119923;27;45317;-83
2022/04/30 01:03:36;;;;;;;5.88;3.25;;;11.80;77.20;;;;;;5122407;27;46085;-83
2022/04/30 01:06:05;;;;;;;6.20;3.20;;;11.70;76.90;;;;;;5126282;27;46272;-83
2022/04/30 01:08:32;;;;;;;5.70;2.80;;;11.60;78.50;;;;;;5119296;27;45715;-83
2022/04/30 01:11:01;;;;;;;7.55;3.38;;;11.70;77.00;;;;;;5125588;27;45590;-83
2022/04/30 01:13:29;;;;;;;6.28;3.05;;;11.60;78.50;;;;;;5128380;27;46148;-83
2022/04/30 01:15:59;;;;;;;8.93;3.00;;;11.60;76.90;;;;;;5126058;27;45189;-83
2022/04/30 01:18:26;;;;;;;2.90;2.35;;;11.50;77.30;;;;;;5132074;27;45194;-83
2022/04/30 01:20:57;;;;;;;7.45;3.15;;;11.60;77.10;;;;;;5126364;27;45292;-83
2022/04/30 01:23:27;;;;;;;5.88;2.90;;;11.60;78.20;;;;;;5120315;27;47991;-83
2022/04/30 01:25:54;;;;;;;3.53;2.40;;;11.60;78.50;;;;;;5128810;27;45459;-83
2022/04/30 01:28:22;;;;;;;5.22;2.80;;;11.60;78.30;;;;;;5125258;27;45176;-82
2022/04/30 01:30:48;;;;;;;5.88;3.05;;;11.60;79.60;;;;;;5127530;27;45322;-83
2022/04/30 01:38:45;;;;;;;5.63;2.78;;;11.50;77.00;;;;;;5117249;27;45171;-83
2022/04/30 01:41:12;;;;;;;4.38;2.92;;;11.50;78.20;;;;;;5123953;27;45338;-83
2022/04/30 01:43:39;;;;;;;5.88;2.88;;;11.40;79.30;;;;;;5126616;27;47961;-83
2022/04/30 01:46:06;;;;;;;6.72;2.78;;;11.50;77.40;;;;;;5126755;27;45371;-82
2022/04/30 01:48:33;;;;;;;5.45;2.33;;;11.50;77.50;;;;;;5129112;27;45378;-83
2022/04/30 01:51:00;;;;;;;3.28;2.50;;;11.50;76.80;;;;;;5125221;27;47221;-83
2022/04/30 01:53:27;;;;;;;6.38;2.90;;;11.50;77.30;;;;;;5123794;27;46975;-82
2022/04/30 01:55:56;;;;;;;3.95;2.33;;;11.50;77.80;;;;;;5129502;27;45134;-83
2022/04/30 01:58:22;;;;;;;5.15;2.92;;;11.40;79.50;;;;;;5125855;27;45268;-83
2022/04/30 02:00:49;;;;;;;5.32;2.20;;;11.40;77.80;;;;;;5124026;27;45239;-83
2022/04/30 02:03:17;;;;;;;6.00;2.40;;;11.40;77.50;;;;;;5130008;27;46196;-83
2022/04/30 02:05:43;;;;;;;6.18;2.83;;;11.40;78.50;;;;;;5121473;27;45350;-82
2022/04/30 02:08:13;;;;;;;5.28;2.55;;;11.30;78.90;;;;;;5124783;27;45279;-82
2022/04/30 02:10:41;;;;;;;4.68;2.67;;;11.30;78.60;;;;;;5128399;27;45342;-82
2022/04/30 02:13:11;;;;;;;5.57;2.53;;;11.20;79.40;;;;;;5127883;27;46600;-82
2022/04/30 02:15:38;;;;;;;6.60;2.67;;;11.20;79.10;;;;;;5128914;27;45833;-83
2022/04/30 02:18:06;;;;;;;5.68;2.53;;;11.10;79.60;;;;;;5126701;27;45448;-82
2022/04/30 02:20:37;;;;;;;4.78;2.67;;;11.20;79.80;;;;;;5117590;27;45412;-83
2022/04/30 02:23:08;;;;;;;8.80;2.80;;;11.20;79.70;;;;;;5126153;27;48479;-83
2022/04/30 02:25:35;;;;;;;4.68;2.65;;;11.10;78.90;;;;;;5128327;27;45290;-82
2022/04/30 02:28:04;;;;;;;5.35;2.47;;;11.10;78.70;;;;;;5122017;27;45392;-83
2022/04/30 02:30:35;;;;;;;6.30;2.80;;;11.20;78.70;;;;;;5125983;27;45320;-83
2022/04/30 02:33:06;;;;;;;4.60;2.40;;;11.20;79.80;;;;;;5128342;27;45248;-83
2022/04/30 02:35:35;;;;;;;3.45;2.22;;;11.10;79.00;;;;;;5129583;27;45461;-82
2022/04/30 02:38:04;;;;;;;3.85;2.50;;;11.00;79.50;;;;;;5126202;27;45174;-82
2022/04/30 02:40:33;;;;;;;4.05;2.45;;;11.20;80.00;;;;;;5125836;27;45593;-82
2022/04/30 02:43:04;;;;;;;4.65;2.30;;;11.10;79.40;;;;;;5128367;27;46029;-83
2022/04/30 02:45:32;;;;;;;4.07;2.45;;;11.10;80.50;;;;;;5126630;27;45359;-82
2022/04/30 02:47:59;;;;;;;3.30;1.83;;;11.10;79.40;;;;;;5126536;27;45234;-83
2022/04/30 02:50:26;;;;;;;6.53;2.45;;;11.10;80.80;;;;;;5128350;27;45160;-83
2022/04/30 02:52:54;;;;;;;3.47;1.90;;;10.90;80.30;;;;;;5127473;27;47426;-83
2022/04/30 02:55:21;;;;;;;3.70;2.10;;;11.10;79.80;;;;;;5129098;27;45409;-83
2022/04/30 03:00:39;;;;;;;3.53;2.33;;;11.10;78.90;;;;;;5122667;27;45293;-83
2022/04/30 03:03:06;;;;;;;3.58;2.40;;;11.00;80.10;;;;;;5116137;27;48349;-83
2022/04/30 03:05:33;;;;;;;4.45;2.30;;;10.90;81.00;;;;;;5124979;27;45256;-83
2022/04/30 03:08:05;;;;;;;5.47;2.20;;;11.00;81.50;;;;;;5129625;27;45244;-83
2022/04/30 03:10:31;;;;;;;6.97;2.40;;;10.90;80.50;;;;;;5124242;27;45203;-83
2022/04/30 03:12:58;;;;;;;4.38;2.42;;;10.80;80.60;;;;;;5117588;27;45531;-83
2022/04/30 03:15:29;;;;;;;3.88;2.22;;;10.90;80.80;;;;;;5125307;27;45129;-83
2022/04/30 03:23:25;;;;;;;5.78;2.95;;;10.90;81.60;;;;;;5117656;27;45387;-83
2022/04/30 03:25:52;;;;;;;7.13;2.40;;;10.90;80.80;;;;;;5127903;27;45227;-83
2022/04/30 03:28:19;;;;;;;4.40;2.25;;;10.90;81.10;;;;;;5119829;27;45485;-83
2022/04/30 03:30:46;;;;;;;5.85;2.47;;;10.90;82.20;;;;;;5120867;27;45223;-83
2022/04/30 03:33:14;;;;;;;5.20;2.67;;;10.80;81.70;;;;;;5121131;27;46483;-83
2022/04/30 03:35:42;;;;;;;5.45;2.63;;;10.70;82.80;;;;;;5127897;27;45291;-83
2022/04/30 03:38:10;;;;;;;4.97;2.80;;;10.80;85.60;;;;;;5122346;27;45367;-84
2022/04/30 03:40:38;;;;;;;7.88;3.30;;;10.90;81.50;;;;;;5121787;27;45330;-83
2022/04/30 03:43:06;;;;;;;5.82;2.55;;;10.80;82.50;;;;;;5123974;27;46718;-83
2022/04/30 03:45:33;;;;;;;8.52;2.80;;;10.70;81.70;;;;;;5121299;27;45260;-83
2022/04/30 03:47:59;;;;;;;5.32;3.08;;;10.70;84.90;;;;;;5124016;27;45228;-83
2022/04/30 03:50:28;;;;;;;4.70;2.67;;;10.80;83.40;;;;;;5131307;27;45287;-84
2022/04/30 03:52:54;;;;;;;4.95;2.50;;;10.80;83.10;;;;;;5124374;27;48563;-83
2022/04/30 03:55:22;;;;;;;3.60;2.40;;;10.80;82.60;;;;;;5128841;27;46734;-83
2022/04/30 03:57:49;;;;;;;6.00;2.10;;;10.90;80.40;;;;;;5123276;27;45384;-83
2022/04/30 04:00:17;;;;;;;4.43;2.38;;;11.10;83.50;;;;;;5129557;27;45239;-83
2022/04/30 04:02:44;;;;;;;4.45;2.53;;;11.50;78.90;;;;;;5132735;27;46185;-83
2022/04/30 04:05:13;;;;;;;4.60;2.25;;;11.20;79.60;;;;;;5130696;27;45276;-83
2022/04/30 04:07:41;;;;;;;4.57;2.17;;;11.00;80.70;;;;;;5132927;27;45606;-83
2022/04/30 04:10:09;;;;;;;7.72;2.90;;;11.10;80.80;;;;;;5126841;27;45375;-84
2022/04/30 04:12:36;;;;;;;4.85;2.75;;;11.00;80.90;;;;;;5127690;27;47409;-84
2022/04/30 04:17:49;;;;;;;8.40;2.58;;;10.70;83.40;;;;;;5122422;27;45576;-84
2022/04/30 04:20:16;;;;;;;6.05;2.60;;;10.60;83.70;;;;;;5127805;27;45287;-83
2022/04/30 04:22:45;;;;;;;4.15;2.55;;;10.50;83.90;;;;;;5129192;27;46453;-84
2022/04/30 04:27:58;;;;;;;5.00;2.28;;;10.50;84.60;;;;;;5125771;27;45260;-83
2022/04/30 04:30:26;;;;;;;5.50;2.83;;;10.50;84.10;;;;;;5125057;27;45298;-85
2022/04/30 04:32:53;;;;;;;5.95;2.70;;;10.50;84.50;;;;;;5118744;27;47251;-85
2022/04/30 04:35:20;;;;;;;3.95;2.88;;;10.40;85.50;;;;;;5122176;27;45277;-85
2022/04/30 04:37:49;;;;;;;6.40;3.55;;;10.40;85.70;;;;;;5124862;27;45293;-85
2022/04/30 04:40:16;;;;;;;5.70;2.97;;;10.50;84.00;;;;;;5130144;27;45701;-84
2022/04/30 04:42:45;;;;;;;6.22;3.22;;;10.50;85.60;;;;;;5125180;27;47436;-82
2022/04/30 04:45:12;;;;;;;5.93;3.17;;;10.40;85.80;;;;;;5124761;27;45210;-84
2022/04/30 04:47:42;;;;;;;4.47;3.22;;;10.40;86.30;;;;;;5131471;27;45185;-83
2022/04/30 04:50:12;;;;;;;5.90;3.22;;;10.20;86.50;;;;;;5127060;27;45161;-85
2022/04/30 04:52:39;;;;;;;7.40;2.88;;;10.30;86.90;;;;;;5124440;27;48409;-84
2022/04/30 04:55:09;;;;;;;7.55;3.55;;;10.30;86.20;;;;;;5130458;27;45213;-84
2022/04/30 04:57:36;;;;;;;7.72;2.90;;;10.30;87.30;;;;;;5133704;27;45350;-84
2022/04/30 05:00:03;;;;;;;3.90;2.78;;;10.30;86.50;;;;;;5123595;27;45385;-82
2022/04/30 05:02:30;;;;;;;8.98;3.10;;;10.40;86.30;;;;;;5116856;27;48108;-83
2022/04/30 05:04:57;;;;;;;6.57;3.17;;;10.20;87.00;;;;;;5122856;27;45269;-84
2022/04/30 05:07:25;;;;;;;3.83;2.55;;;10.20;87.90;;;;;;5127643;27;45164;-83
2022/04/30 05:09:52;;;;;;;7.30;3.65;;;10.20;88.40;;;;;;5126727;27;45504;-84
2022/04/30 05:12:20;;;;;;;6.47;3.00;;;10.50;86.10;;;;;;5114697;27;46474;-82
2022/04/30 05:14:48;;;;;;;4.10;2.50;;;10.30;89.00;;;;;;5128589;27;45380;-82
2022/04/30 05:17:15;;;;;;;8.80;2.88;;;10.40;87.80;;;;;;5128051;27;45267;-83
2022/04/30 05:19:42;;;;;;;4.35;3.20;;;10.50;87.00;;;;;;5127003;27;45313;-83
2022/04/30 05:22:09;;;;;;;5.53;3.20;;;10.40;87.70;;;;;;5124371;27;47588;-83
2022/04/30 05:24:36;;;;;;;9.00;3.45;;;10.30;88.30;;;;;;5123944;27;45297;-84
2022/04/30 05:27:03;;;;;;;5.75;3.40;;;10.30;89.90;;;;;;5127945;27;45218;-83
2022/04/30 05:29:32;;;;;;;12.55;3.40;;;10.30;88.70;;;;;;5129100;27;45424;-83
2022/04/30 05:31:59;;;;;;;6.22;3.00;;;10.40;88.30;;;;;;5126725;27;45708;-83
2022/04/30 05:34:27;;;;;;;5.88;3.03;;;10.50;87.50;;;;;;5122429;27;45622;-83
2022/04/30 05:36:54;;;;;;;7.13;2.90;;;10.50;88.40;;;;;;5113524;27;45728;-83
2022/04/30 05:39:21;;;;;;;5.68;2.78;;;10.50;88.10;;;;;;5114470;27;45301;-83
2022/04/30 05:41:48;;;;;;;5.65;3.25;;;10.50;87.80;;;;;;5126659;27;46194;-83
2022/04/30 05:44:14;;;;;;;6.78;2.80;;;10.60;88.30;;;;;;5128051;27;45226;-83
2022/04/30 05:46:43;;;;;;;9.85;3.45;;;10.70;87.60;;;;;;5127853;27;45227;-84
2022/04/30 05:49:09;;;;;;;6.45;3.50;;;10.70;88.00;;;;;;5127091;27;45422;-83
2022/04/30 05:51:36;;;;;;;7.35;2.83;;;10.40;87.20;;;;;;5123383;27;47080;-82
2022/04/30 05:54:03;;;;;;;8.43;3.33;;;10.50;90.20;;;;;;5125866;27;45332;-83
2022/04/30 05:56:30;;;;;;;7.05;2.92;;;10.50;89.60;;;;;;5119833;27;45733;-84
2022/04/30 05:58:57;;;;;;;9.23;3.65;;;10.50;89.40;;;;;;5124508;27;45349;-84
2022/04/30 06:01:24;;;;;;;4.57;2.83;;;10.60;90.50;;;;;;5129565;27;46041;-84
2022/04/30 06:03:53;;;;;;;5.57;3.15;;;10.50;88.20;;;;;;5128018;27;45246;-84
2022/04/30 06:06:20;;;;;;;8.40;3.42;;;10.20;89.00;;;;;;5123696;27;45206;-84
2022/04/30 06:08:48;;;;;;;4.60;3.13;;;10.00;90.00;;;;;;5124980;27;45198;-84
2022/04/30 06:11:15;;;;;;;7.13;2.88;;;9.80;90.90;;;;;;5122899;27;46875;-83
2022/04/30 06:13:42;;;;;;;7.93;3.33;;;10.00;90.60;;;;;;5126306;27;45651;-83
2022/04/30 06:16:09;;;;;;;8.07;2.80;;;10.30;91.90;;;;;;5129870;27;45253;-83
2022/04/30 06:18:36;;;;;;;5.50;2.97;;;10.50;91.30;;;;;;5126552;27;45180;-83
2022/04/30 06:21:04;;;;;;;5.45;2.90;;;10.60;91.40;;;;;;5123523;27;47157;-84
2022/04/30 06:23:31;;;;;;;11.45;3.60;;;10.50;90.80;;;;;;5128423;27;45359;-84
2022/04/30 06:25:58;;;;;;;7.25;3.80;;;10.60;91.10;;;;;;5125838;27;45116;-84
2022/04/30 06:28:25;;;;;;;12.65;2.95;;;10.60;90.70;;;;;;5121882;27;45608;-84
2022/04/30 06:30:52;;;;;;;6.35;3.33;;;10.70;90.90;;;;;;5123949;27;46616;-84
2022/04/30 06:33:20;;;;;;;6.88;3.42;;;10.70;91.20;;;;;;5126632;27;45227;-84
2022/04/30 06:35:46;;;;;;;7.93;3.17;;;10.80;90.90;;;;;;5124470;27;45278;-84
2022/04/30 06:38:15;;;;;;;6.22;3.42;;;10.80;90.90;;;;;;5124924;27;45483;-84
2022/04/30 06:40:42;;;;;;;6.20;3.38;;;10.90;90.90;;;;;;5126472;27;45270;-84
2022/04/30 06:43:09;;;;;;;8.30;3.97;;;11.00;90.90;;;;;;5123269;27;45594;-84
2022/04/30 06:45:35;;;;;;;8.93;3.53;;;11.00;90.20;;;;;;5127609;27;45209;-84
2022/04/30 06:48:02;;;;;;;6.57;3.35;;;11.10;90.60;;;;;;5130842;27;45392;-83
2022/04/30 06:50:29;;;;;;;7.18;3.83;;;11.30;90.20;;;;;;5128984;27;45849;-83
2022/04/30 06:58:27;;;;;;;7.55;4.03;;;11.10;90.70;;;;;;5123818;27;45266;-83
2022/04/30 07:03:38;;;;;;;10.95;4.28;;;11.10;89.50;;;;;;5125028;27;45178;-84
2022/04/30 07:06:05;;;;;;;6.35;3.58;;;11.30;89.70;;;;;;5123249;27;45180;-83
2022/04/30 07:08:34;;;;;;;9.05;3.42;;;11.40;90.50;;;;;;5118108;27;45434;-83
2022/04/30 07:11:03;;;;;;;10.07;4.43;;;11.40;90.00;;;;;;5115088;27;45671;-83
2022/04/30 07:13:30;;;;;;;5.60;3.67;;;11.30;89.40;;;;;;5122408;27;45293;-83
2022/04/30 07:15:58;;;;;;;9.30;4.30;;;11.40;89.80;;;;;;5125703;27;45238;-83
2022/04/30 07:18:25;;;;;;;9.70;4.15;;;11.50;88.40;;;;;;5120311;27;45526;-84
2022/04/30 07:20:53;;;;;;;10.07;4.30;;;11.50;87.40;;;;;;5121120;27;45325;-84
2022/04/30 07:23:20;;;;;;;7.63;4.10;;;11.60;90.00;;;;;;5124927;27;45173;-83
2022/04/30 07:25:47;;;;;;;9.88;4.03;;;11.70;88.40;;;;;;5118259;27;45164;-84
2022/04/30 07:28:15;;;;;;;10.73;3.67;;;11.60;86.80;;;;;;5125735;27;45211;-83
2022/04/30 07:30:42;;;;;;;8.60;4.38;;;11.20;90.00;;;;;;5127351;27;45365;-83
2022/04/30 07:33:09;;;;;;;9.75;4.18;;;11.30;88.90;;;;;;5128347;27;45344;-83
2022/04/30 07:35:36;;;;;;;5.47;3.22;;;11.40;90.30;;;;;;5119726;27;45433;-83
2022/04/30 07:38:02;;;;;;;7.10;3.10;;;11.60;86.60;;;;;;5127410;27;45162;-84
2022/04/30 07:40:29;;;;;;;4.85;3.00;;;11.60;86.80;;;;;;5126326;27;48046;-83
2022/04/30 07:42:57;;;;;;;5.97;2.83;;;11.50;87.70;;;;;;5128728;27;45242;-84
2022/04/30 07:45:25;;;;;;;4.95;2.70;;;11.70;83.00;;;;;;5122518;27;45377;-84
2022/04/30 07:47:54;;;;;;;5.68;2.42;;;11.70;85.00;;;;;;5113409;27;45399;-84
2022/04/30 07:50:22;;;;;;;6.10;2.30;;;11.80;83.40;;;;;;5122299;27;45527;-84
2022/04/30 07:52:48;;;;;;;3.00;2.15;;;11.80;83.60;;;;;;5118738;27;45489;-84
2022/04/30 07:55:15;;;;;;;5.00;2.30;;;11.80;80.70;;;;;;5119605;27;45283;-83
2022/04/30 07:57:42;;;;;;;5.22;2.60;;;11.90;79.30;;;;;;5126889;27;45412;-84
2022/04/30 08:00:12;;;;;;;4.45;2.42;;;11.90;81.60;;;;;;5116428;27;47928;-83
2022/04/30 08:02:40;;;;;;;5.82;2.22;;;11.90;79.30;;;;;;5123852;27;45393;-83
2022/04/30 08:05:07;;;;;;;4.20;2.40;;;12.00;82.50;;;;;;5119740;27;45714;-82
2022/04/30 08:07:34;;;;;;;3.20;2.00;;;12.10;76.20;;;;;;5115687;27;45597;-83
2022/04/30 08:10:01;;;;;;;3.78;1.95;;;12.20;79.60;;;;;;5114354;27;47423;-83
2022/04/30 08:12:28;;;;;;;3.20;2.00;;;12.30;78.10;;;;;;5117637;27;45389;-83
2022/04/30 08:14:54;;;;;;;7.15;2.30;;;12.50;75.60;;;;;;5121573;27;45489;-83
2022/04/30 08:17:21;;;;;;;3.67;2.42;;;12.30;74.60;;;;;;5123907;27;45578;-83
2022/04/30 08:19:49;;;;;;;7.47;2.47;;;12.30;73.20;;;;;;5114409;27;45115;-84
2022/04/30 08:22:16;;;;;;;3.58;1.92;;;12.70;73.80;;;;;;5125586;27;45308;-84
2022/04/30 08:24:43;;;;;;;8.15;2.97;;;12.60;75.00;;;;;;5121690;27;45384;-84
2022/04/30 08:27:10;;;;;;;5.53;3.00;;;12.70;77.30;;;;;;5125861;27;45511;-84
2022/04/30 08:29:37;;;;;;;5.45;2.25;;;12.60;74.10;;;;;;5118014;27;45950;-85
2022/04/30 08:32:05;;;;;;;5.60;2.75;;;12.50;75.10;;;;;;5120467;27;45236;-85
2022/04/30 08:34:32;;;;;;;6.15;1.88;;;12.70;73.80;;;;;;5122447;27;45455;-83
2022/04/30 08:37:00;;;;;;;6.43;3.05;;;13.10;77.70;;;;;;5127153;27;45401;-84
2022/04/30 08:39:27;;;;;;;7.57;3.45;;;13.00;72.10;;;;;;5139810;27;47033;-85
2022/04/30 08:41:54;;;;;;;6.35;3.38;;;12.60;72.70;;;;;;5129750;27;45839;-84
2022/04/30 08:44:21;;;;;;;4.97;2.90;;;12.40;73.60;;;;;;5129230;27;45534;-84
2022/04/30 08:46:48;;;;;;;6.32;2.97;;;12.20;72.70;;;;;;5130894;27;45318;-84
2022/04/30 08:49:15;;;;;;;8.48;2.63;;;12.30;70.10;;;;;;5129960;27;46477;-83
2022/04/30 08:51:42;;;;;;;4.25;2.22;;;12.20;71.80;;;;;;5125882;27;45253;-85
2022/04/30 08:54:10;;;;;;;5.28;2.47;;;12.30;70.50;;;;;;5131753;27;45402;-84
2022/04/30 08:56:37;;;;;;;4.28;2.70;;;12.40;70.80;;;;;;5129196;27;45132;-84
2022/04/30 08:59:05;;;;;;;3.58;2.40;;;12.30;69.40;;;;;;5130705;27;45333;-84
2022/04/30 09:01:44;;;;;;;4.63;2.45;;;12.40;72.60;;;;;;5129729;27;45492;-85
2022/04/30 09:04:11;;;;;;;5.25;2.30;;;12.50;71.70;;;;;;5129872;27;45086;-84
2022/04/30 09:06:45;;;;;;;3.78;2.38;;;12.60;67.10;;;;;;5127311;27;45337;-84
2022/04/30 09:09:22;;;;;;;7.38;2.88;;;12.50;71.70;;;;;;5128709;27;48093;-84
2022/04/30 09:11:49;;;;;;;5.47;3.22;;;12.60;70.90;;;;;;5124554;27;45468;-86
2022/04/30 09:14:23;;;;;;;8.65;3.38;;;12.60;70.40;;;;;;5129765;27;45188;-84
2022/04/30 09:17:02;;;;;;;7.57;2.72;;;12.70;70.50;;;;;;5128856;27;45205;-83
2022/04/30 09:19:28;;;;;;;5.25;2.90;;;12.70;71.90;;;;;;5130157;27;46703;-83
2022/04/30 09:21:55;;;;;;;7.22;2.88;;;12.70;72.20;;;;;;5131169;27;45169;-85
2022/04/30 09:24:23;;;;;;;8.02;3.70;;;12.90;71.00;;;;;;5126373;27;45475;-84
2022/04/30 09:26:52;;;;;;;9.10;3.40;;;13.00;72.10;;;;;;5126901;27;45223;-85
2022/04/30 09:29:21;;;;;;;7.22;4.07;;;12.80;67.40;;;;;;5115790;27;46256;-84
2022/04/30 09:31:51;;;;;;;5.07;2.83;;;12.90;72.10;;;;;;5110149;27;45844;-82
2022/04/30 09:39:56;;;;;;;4.65;3.00;;;12.70;65.80;;;;;;5113473;27;45378;-84
2022/04/30 09:42:23;;;;;;;4.53;2.95;;;12.70;67.50;;;;;;5130687;27;45273;-85
2022/04/30 09:44:50;;;;;;;4.57;3.10;;;12.70;69.80;;;;;;5126774;27;45240;-85
2022/04/30 09:47:17;;;;;;;9.93;3.15;;;12.70;70.10;;;;;;5127990;27;45389;-85
2022/04/30 09:55:16;;;;;;;6.32;3.13;;;13.00;69.30;;;;;;5110334;27;45461;-85
2022/04/30 09:57:45;;;;;;;4.57;2.97;;;12.90;68.70;;;;;;5122863;27;45209;-85
2022/04/30 10:00:13;;;;;;;4.13;2.72;;;12.90;66.30;;;;;;5130135;27;47065;-84
2022/04/30 10:02:44;;;;;;;6.47;2.95;;;12.90;66.20;;;;;;5128561;27;45273;-84
2022/04/30 10:05:13;;;;;;;4.55;2.88;;;13.00;66.80;;;;;;5130176;27;45351;-85
2022/04/30 10:07:40;;;;;;;5.03;2.40;;;13.10;64.50;;;;;;5129886;27;45274;-84
2022/04/30 10:10:15;;;;;;;4.57;2.50;;;13.10;64.90;;;;;;5127960;27;47875;-84
2022/04/30 10:12:50;;;;;;;3.17;2.67;;;13.00;64.70;;;;;;5128948;27;45212;-84
2022/04/30 10:15:22;;;;;;;4.78;2.60;;;13.10;66.90;;;;;;5127746;27;45424;-84
2022/04/30 10:17:53;;;;;;;6.50;2.40;;;13.10;64.00;;;;;;5130600;27;45149;-84
2022/04/30 10:20:29;;;;;;;5.38;2.67;;;13.20;67.80;;;;;;5126054;27;48136;-84
2022/04/30 10:22:57;;;;;;;7.38;2.53;;;13.40;64.00;;;;;;5129872;27;46069;-84
2022/04/30 10:25:42;;;;;;;7.93;3.40;;;13.20;63.60;;;;;;5129887;27;45219;-84
2022/04/30 10:28:21;;;;;;;6.65;3.15;;;13.20;64.00;;;;;;5130349;27;45285;-84
2022/04/30 10:31:00;;;;;;;4.78;2.65;;;13.10;62.80;;;;;;5129064;27;47833;-84
2022/04/30 10:33:27;;;;;;;7.30;2.90;;;13.00;66.50;;;;;;5129466;27;45204;-84
2022/04/30 10:36:04;;;;;;;4.35;2.58;;;13.10;70.30;;;;;;5127651;27;45241;-83
2022/04/30 10:38:31;;;;;;;4.60;2.53;;;13.10;62.00;;;;;;5111982;27;45139;-84
2022/04/30 10:40:59;;;;;;;6.47;2.38;;;13.20;67.10;;;;;;5108938;27;47449;-84
2022/04/30 10:43:32;;;;;;;5.82;3.25;;;13.30;67.50;;;;;;5109412;27;46116;-84
2022/04/30 10:45:59;;;;;;;9.15;3.22;;;13.40;65.10;;;;;;5123148;27;45185;-84
2022/04/30 10:48:26;;;;;;;4.82;2.83;;;13.40;61.80;;;;;;5129426;27;45360;-84
2022/04/30 10:51:05;;;;;;;9.23;3.78;;;13.30;65.40;;;;;;5130202;27;47318;-84
2022/04/30 10:53:33;;;;;;;3.92;2.67;;;13.50;66.00;;;;;;5125539;27;45278;-84
2022/04/30 10:56:01;;;;;;;5.18;2.90;;;13.50;65.10;;;;;;5130656;27;45274;-84
2022/04/30 10:58:31;;;;;;;8.10;3.08;;;13.50;65.50;;;;;;5128946;27;45503;-84
2022/04/30 11:00:59;;;;;;;3.92;2.58;;;13.70;67.10;;;;;;5130184;27;48772;-85
2022/04/30 11:03:30;;;;;;;3.83;2.25;;;13.60;65.70;;;;;;5127169;27;45197;-85
2022/04/30 11:05:58;;;;;;;5.25;2.47;;;13.60;64.50;;;;;;5128729;27;45306;-84
2022/04/30 11:08:26;;;;;;;4.65;2.83;;;13.70;67.40;;;;;;5107879;27;45134;-84
2022/04/30 11:10:54;;;;;;;6.82;3.00;;;13.70;63.30;;;;;;5112501;27;47799;-85
2022/04/30 11:13:22;;;;;;;3.67;2.50;;;13.70;65.40;;;;;;5122585;27;45196;-84
2022/04/30 11:15:50;;;;;;;5.80;2.85;;;13.60;64.40;;;;;;5128540;27;45158;-84
2022/04/30 11:18:19;;;;;;;5.75;3.00;;;13.70;62.90;;;;;;5129575;27;45189;-84
2022/04/30 11:20:47;;;;;;;6.10;3.05;;;13.70;68.40;;;;;;5129106;27;48790;-84
2022/04/30 11:23:22;;;;;;;4.88;2.85;;;13.70;65.60;;;;;;5123286;27;45406;-84
2022/04/30 11:25:49;;;;;;;4.43;2.03;;;13.60;62.60;;;;;;5108059;27;45099;-85
2022/04/30 11:28:16;;;;;;;3.50;2.38;;;13.70;62.50;;;;;;5108728;27;45271;-84
2022/04/30 11:30:44;;;;;;;4.78;2.72;;;13.70;61.70;;;;;;5108635;27;45363;-85
2022/04/30 11:33:13;;;;;;;4.93;2.10;;;13.70;62.50;;;;;;5119143;27;45322;-84
2022/04/30 11:35:40;;;;;;;4.20;2.78;;;13.70;59.40;;;;;;5108692;27;45218;-85
2022/04/30 11:38:10;;;;;;;4.20;2.25;;;13.80;60.50;;;;;;5123220;27;45521;-84
2022/04/30 11:40:42;;;;;;;5.82;2.42;;;13.80;59.80;;;;;;5125707;27;46654;-85
2022/04/30 11:43:09;;;;;;;3.92;1.90;;;13.80;64.50;;;;;;5126768;27;45662;-85
2022/04/30 11:45:36;;;;;;;3.20;2.33;;;13.80;57.40;;;;;;5127297;27;45224;-85
2022/04/30 11:48:04;;;;;;;2.40;1.65;;;13.80;57.40;;;;;;5124424;27;45777;-85
2022/04/30 11:50:33;;;;;;;3.90;2.53;;;13.70;58.50;;;;;;5107048;27;47908;-85
2022/04/30 11:53:00;;;;;;;5.45;1.85;;;13.80;58.80;;;;;;5114516;27;45320;-85
2022/04/30 11:55:29;;;;;;;4.32;2.40;;;13.90;56.90;;;;;;5128831;27;45246;-85
2022/04/30 11:58:03;;;;;;;3.50;2.00;;;13.90;65.10;;;;;;5121778;27;45384;-84
2022/04/30 12:00:34;;;;;;;2.78;1.90;;;13.90;58.80;;;;;;5106840;27;48152;-84
2022/04/30 12:03:01;;;;;;;3.55;1.63;;;13.90;54.90;;;;;;5128216;27;45875;-84
2022/04/30 12:05:32;;;;;;;3.03;1.30;;;13.90;62.50;;;;;;5128810;27;45242;-85
2022/04/30 12:08:02;;;;;;;4.05;1.52;;;13.90;56.60;;;;;;5127859;27;45188;-85
2022/04/30 12:10:29;;;;;;;3.35;1.70;;;13.80;58.40;;;;;;5129589;27;46997;-85
2022/04/30 12:12:56;;;;;;;2.25;1.17;;;13.90;57.90;;;;;;5120506;27;45457;-85
2022/04/30 12:15:26;;;;;;;12.93;2.00;;;14.10;64.60;;;;;;5120985;27;45339;-85
2022/04/30 12:26:39;;;;;;;2.00;1.58;;;14.10;55.10;;;;;;5110116;27;45722;-85
2022/04/30 12:29:20;;;;;;;5.47;1.73;;;14.00;54.10;;;;;;5114019;27;45654;-84
2022/04/30 12:31:47;;;;;;;3.53;1.60;;;13.90;55.90;;;;;;5114856;27;47701;-84
2022/04/30 12:34:18;;;;;;;2.03;1.30;;;14.00;54.60;;;;;;5114236;27;45448;-84
2022/04/30 12:36:53;;;;;;;2.55;1.55;;;14.00;53.70;;;;;;5115228;27;45319;-84
2022/04/30 12:39:20;;;;;;;1.73;1.20;;;14.20;55.90;;;;;;5124813;27;45400;-83
2022/04/30 12:41:47;;;;;;;2.83;1.63;;;14.20;55.80;;;;;;5114965;27;47598;-84
2022/04/30 12:44:15;;;;;;;2.05;1.75;;;14.20;54.10;;;;;;5120111;27;45130;-84
2022/04/30 12:46:44;;;;;;;2.75;1.60;;;14.20;53.20;;;;;;5131092;27;45232;-83
2022/04/30 12:49:12;;;;;;;6.18;1.60;;;14.30;53.10;;;;;;5129045;27;45621;-84
2022/04/30 12:51:39;;;;;;;4.30;1.70;;;14.20;55.00;;;;;;5127377;27;45732;-84
2022/04/30 12:54:10;;;;;;;4.03;1.48;;;14.20;52.60;;;;;;5128154;27;45166;-85
2022/04/30 12:56:37;;;;;;;3.08;1.52;;;14.30;53.40;;;;;;5127249;27;45266;-84
2022/04/30 12:59:05;;;;;;;1.23;1.13;;;14.30;55.20;;;;;;5117653;27;45531;-84
2022/04/30 13:01:33;;;;;;;1.95;1.30;;;14.30;52.50;;;;;;5119355;27;47073;-84
2022/04/30 13:04:00;;;;;;;2.78;1.48;;;14.40;54.10;;;;;;5120358;27;45223;-84
2022/04/30 13:06:26;;;;;;;3.00;1.42;;;14.40;53.00;;;;;;5119785;27;45429;-84
2022/04/30 13:14:23;;;;;;;4.18;1.15;;;14.40;54.40;;;;;;5119239;27;45346;-84
2022/04/30 13:16:50;;;;;;;2.33;1.45;;;14.50;54.40;;;;;;5116290;27;45333;-84
2022/04/30 13:19:17;;;;;;;3.03;1.50;;;14.80;52.30;;;;;;5115626;27;45746;-83
2022/04/30 13:21:46;;;;;;;2.70;1.50;;;14.60;51.20;;;;;;5119280;27;45455;-84
2022/04/30 13:24:13;;;;;;;3.15;1.05;;;14.50;50.50;;;;;;5127345;27;46059;-84
2022/04/30 13:26:42;;;;;;;3.05;1.23;;;14.40;53.90;;;;;;5126653;27;45327;-84
2022/04/30 13:29:10;;;;;;;1.83;1.27;;;14.50;54.20;;;;;;5128420;27;45421;-84
2022/04/30 13:31:37;;;;;;;3.33;1.25;;;14.70;52.90;;;;;;5129636;27;45532;-84
2022/04/30 13:34:04;;;;;;;2.72;1.35;;;14.60;51.80;;;;;;5129927;27;45664;-84
2022/04/30 13:36:33;;;;;;;3.65;1.67;;;14.50;53.90;;;;;;5123484;27;45311;-84
2022/04/30 13:39:01;;;;;;;1.63;1.08;;;14.60;51.10;;;;;;5122722;27;45417;-85
2022/04/30 13:41:28;;;;;;;3.22;1.30;;;14.70;51.70;;;;;;5125684;27;46941;-85
2022/04/30 13:43:56;;;;;;;2.00;1.00;;;14.70;51.70;;;;;;5128841;27;45206;-85